Time;durP1;ratioP1;P1;durP2;ratioP2;P2;SDS_P1;SDS_P2;PMS_P1;PMS_P2;Temp;Humidity;BMP_temperature;BMP_pressure;BME280_temperature;BME280_humidity;BME280_pressure;Samples;Min_cycle;Max_cycle;Signal;HPM_P1;HPM_P2
2021/07/13 00:02:06;;;;;;;22.40;16.17;;;20.80;81.50;;;;;;5097082;28;20674;-90
2021/07/13 00:04:34;;;;;;;22.07;16.70;;;20.80;81.70;;;;;;5097395;28;20607;-90
2021/07/13 00:07:00;;;;;;;20.83;16.08;;;20.80;81.50;;;;;;5097318;28;20186;-90
2021/07/13 00:09:26;;;;;;;22.20;17.33;;;20.80;81.40;;;;;;5097444;28;20179;-90
2021/07/13 00:11:51;;;;;;;23.53;18.37;;;20.80;81.40;;;;;;5097800;28;20203;-90
2021/07/13 00:14:17;;;;;;;23.83;18.47;;;20.70;81.70;;;;;;5097388;28;20438;-90
2021/07/13 00:16:43;;;;;;;22.33;18.48;;;20.70;82.20;;;;;;5097511;28;20184;-90
2021/07/13 00:19:09;;;;;;;21.63;15.70;;;20.70;82.10;;;;;;5097420;28;20211;-90
2021/07/13 00:21:36;;;;;;;21.77;17.67;;;20.70;82.10;;;;;;5098730;28;20211;-90
2021/07/13 00:24:02;;;;;;;27.10;17.38;;;20.70;82.00;;;;;;5097496;28;20179;-91
2021/07/13 00:26:28;;;;;;;20.40;17.80;;;20.80;82.00;;;;;;5098303;28;20187;-90
2021/07/13 00:28:54;;;;;;;26.70;19.47;;;20.70;82.20;;;;;;5098026;28;20498;-90
2021/07/13 00:31:20;;;;;;;23.13;19.20;;;20.70;82.30;;;;;;5096713;28;20199;-90
2021/07/13 00:33:45;;;;;;;30.90;20.23;;;20.70;82.30;;;;;;5109409;28;20210;-90
2021/07/13 00:36:11;;;;;;;28.10;17.30;;;20.90;81.70;;;;;;5114707;28;20176;-90
2021/07/13 00:38:36;;;;;;;24.20;17.00;;;21.10;80.20;;;;;;5097903;28;20348;-90
2021/07/13 00:41:02;;;;;;;18.93;16.97;;;21.10;79.80;;;;;;5097240;28;20192;-90
2021/07/13 00:43:28;;;;;;;23.37;17.23;;;20.90;80.10;;;;;;5097111;28;20179;-90
2021/07/13 00:45:54;;;;;;;22.83;17.17;;;20.90;80.50;;;;;;5097221;28;20436;-90
2021/07/13 00:48:21;;;;;;;20.17;17.37;;;20.80;80.80;;;;;;5097294;28;20187;-90
2021/07/13 00:50:47;;;;;;;24.00;18.50;;;20.90;81.00;;;;;;5097944;28;20279;-90
2021/07/13 00:53:13;;;;;;;20.00;17.10;;;20.90;80.60;;;;;;5096677;28;20414;-90
2021/07/13 00:55:39;;;;;;;22.47;17.30;;;21.10;79.40;;;;;;5096686;28;20726;-90
2021/07/13 00:58:05;;;;;;;21.23;16.10;;;21.10;78.80;;;;;;5096833;28;20449;-90
2021/07/13 01:00:31;;;;;;;26.27;17.47;;;21.20;78.30;;;;;;5096834;28;20664;-90
2021/07/13 01:03:01;;;;;;;21.38;16.08;;;21.10;78.40;;;;;;5097092;28;20472;-90
2021/07/13 01:05:37;;;;;;;19.40;14.75;;;21.00;78.70;;;;;;5097245;28;20234;-90
2021/07/13 01:08:09;;;;;;;16.10;13.20;;;21.10;78.50;;;;;;5100061;28;20164;-90
2021/07/13 01:11:07;;;;;;;18.92;13.00;;;21.10;78.10;;;;;;5101775;28;20184;-90
2021/07/13 01:13:56;;;;;;;15.95;11.40;;;20.90;79.10;;;;;;5099570;28;20172;-90
2021/07/13 01:16:52;;;;;;;24.58;14.10;;;21.10;77.70;;;;;;5100000;28;20199;-90
2021/07/13 01:19:55;;;;;;;16.10;12.48;;;21.00;77.00;;;;;;5092032;28;20214;-90
2021/07/13 01:22:27;;;;;;;17.45;13.32;;;20.80;78.00;;;;;;5099032;28;20199;-90
2021/07/13 01:25:12;;;;;;;17.42;12.70;;;20.50;79.50;;;;;;5098304;28;20168;-90
2021/07/13 01:28:17;;;;;;;13.63;12.23;;;20.40;80.20;;;;;;5099723;28;20696;-90
2021/07/13 01:30:46;;;;;;;17.83;14.70;;;20.40;80.40;;;;;;5112276;28;20186;-90
2021/07/13 01:33:22;;;;;;;17.42;14.75;;;20.30;81.10;;;;;;5097254;28;20176;-90
2021/07/13 01:36:14;;;;;;;20.85;14.07;;;20.10;81.80;;;;;;5096229;28;20186;-90
2021/07/13 01:38:42;;;;;;;16.73;14.35;;;20.20;81.80;;;;;;5109568;28;20237;-90
2021/07/13 01:41:11;;;;;;;15.55;12.02;;;20.40;81.70;;;;;;5095278;28;20650;-90
2021/07/13 01:43:39;;;;;;;18.58;14.80;;;20.60;80.80;;;;;;5095285;28;20275;-90
2021/07/13 01:46:06;;;;;;;17.20;12.43;;;20.70;80.00;;;;;;5095493;28;20172;-90
2021/07/13 01:48:33;;;;;;;19.42;14.00;;;20.80;79.40;;;;;;5095131;28;20176;-90
2021/07/13 01:51:01;;;;;;;18.95;12.25;;;20.80;79.00;;;;;;5095829;28;20566;-90
2021/07/13 01:53:28;;;;;;;15.85;11.52;;;20.80;78.80;;;;;;5095479;28;20191;-90
2021/07/13 01:55:55;;;;;;;18.08;12.40;;;20.80;78.50;;;;;;5095145;28;20175;-90
2021/07/13 01:58:28;;;;;;;16.60;11.70;;;20.90;78.20;;;;;;5095009;28;20252;-90
2021/07/13 02:01:04;;;;;;;13.45;12.10;;;20.90;78.10;;;;;;5094962;28;20266;-90
2021/07/13 02:03:31;;;;;;;13.32;11.90;;;20.80;78.00;;;;;;5095225;28;20179;-90
2021/07/13 02:05:57;;;;;;;15.05;11.52;;;20.70;78.50;;;;;;5096439;28;20174;-90
2021/07/13 02:08:24;;;;;;;16.88;11.88;;;20.70;78.60;;;;;;5096224;28;20251;-90
2021/07/13 02:10:50;;;;;;;13.50;11.23;;;20.70;78.60;;;;;;5095078;28;20195;-90
2021/07/13 02:13:17;;;;;;;15.60;11.15;;;20.80;78.30;;;;;;5094624;28;20176;-90
2021/07/13 02:15:43;;;;;;;13.57;11.35;;;20.60;78.40;;;;;;5096351;28;20188;-90
2021/07/13 02:18:10;;;;;;;14.40;12.67;;;20.50;78.90;;;;;;5095785;28;20203;-90
2021/07/13 02:20:37;;;;;;;13.73;11.52;;;20.40;79.40;;;;;;5097907;28;20267;-90
2021/07/13 02:23:04;;;;;;;15.27;12.60;;;20.40;80.00;;;;;;5095839;28;20247;-90
2021/07/13 02:25:30;;;;;;;19.05;13.80;;;20.50;79.70;;;;;;5104053;28;20176;-90
2021/07/13 02:28:11;;;;;;;14.73;11.90;;;20.40;79.80;;;;;;5100563;28;20570;-90
2021/07/13 02:30:39;;;;;;;15.65;11.98;;;20.40;80.00;;;;;;5094230;28;20183;-90
2021/07/13 02:33:17;;;;;;;13.48;11.90;;;20.30;80.40;;;;;;5094871;28;20175;-90
2021/07/13 02:35:50;;;;;;;17.27;14.25;;;20.10;80.80;;;;;;5094936;28;20203;-90
2021/07/13 02:38:18;;;;;;;19.45;12.23;;;20.10;81.10;;;;;;5096273;28;20207;-90
2021/07/13 02:40:46;;;;;;;17.25;13.20;;;20.10;81.50;;;;;;5097589;28;20638;-90
2021/07/13 02:43:13;;;;;;;15.48;11.98;;;20.00;81.80;;;;;;5109607;28;20166;-90
2021/07/13 02:45:40;;;;;;;18.02;15.38;;;20.00;81.80;;;;;;5096016;28;20183;-90
2021/07/13 02:48:07;;;;;;;14.60;13.10;;;19.90;82.10;;;;;;5094275;28;20566;-90
2021/07/13 02:50:34;;;;;;;19.80;13.68;;;20.00;82.20;;;;;;5093980;28;20180;-90
2021/07/13 02:53:01;;;;;;;16.73;12.88;;;20.00;82.40;;;;;;5094883;28;20646;-90
2021/07/13 02:55:29;;;;;;;14.88;13.07;;;20.10;82.40;;;;;;5094918;28;20188;-90
2021/07/13 02:57:57;;;;;;;18.00;14.02;;;20.30;81.50;;;;;;5095414;28;20551;-90
2021/07/13 03:00:23;;;;;;;20.13;12.73;;;20.40;80.40;;;;;;5093610;28;20183;-90
2021/07/13 03:02:50;;;;;;;13.50;11.75;;;20.40;80.00;;;;;;5094067;28;20228;-90
2021/07/13 03:05:22;;;;;;;14.93;12.63;;;20.50;79.40;;;;;;5093834;28;20205;-90
2021/07/13 03:07:49;;;;;;;13.95;11.60;;;20.50;78.90;;;;;;5094008;28;20183;-90
2021/07/13 03:10:19;;;;;;;16.55;11.70;;;20.30;79.00;;;;;;5079546;28;20215;-90
2021/07/13 03:12:46;;;;;;;15.75;12.75;;;20.20;80.00;;;;;;5073207;28;20204;-90
2021/07/13 03:15:12;;;;;;;13.50;12.13;;;20.10;80.60;;;;;;5073479;28;20290;-90
2021/07/13 03:17:38;;;;;;;15.73;12.70;;;20.30;80.70;;;;;;5073529;28;20235;-90
2021/07/13 03:20:04;;;;;;;17.65;12.20;;;20.30;80.90;;;;;;5077271;28;20176;-90
2021/07/13 03:22:34;;;;;;;17.65;13.45;;;20.30;80.50;;;;;;5083759;28;20207;-90
2021/07/13 03:25:02;;;;;;;14.68;12.68;;;20.30;80.40;;;;;;5073663;28;20305;-90
2021/07/13 03:27:31;;;;;;;15.98;12.00;;;20.30;80.60;;;;;;5073747;28;20260;-90
2021/07/13 03:29:58;;;;;;;16.27;11.85;;;20.30;80.70;;;;;;5075328;28;20172;-90
2021/07/13 03:32:25;;;;;;;16.67;13.23;;;20.50;80.30;;;;;;5073120;28;20200;-90
2021/07/13 03:34:51;;;;;;;17.35;14.40;;;20.60;79.90;;;;;;5075589;28;20180;-90
2021/07/13 03:37:18;;;;;;;17.77;13.82;;;20.80;78.80;;;;;;5074742;28;20180;-90
2021/07/13 03:39:45;;;;;;;18.00;15.00;;;20.90;78.30;;;;;;5074710;28;20557;-90
2021/07/13 03:42:11;;;;;;;18.02;16.00;;;21.10;77.60;;;;;;5078324;28;20598;-90
2021/07/13 03:44:39;;;;;;;21.42;15.70;;;21.10;77.30;;;;;;5076892;28;20216;-90
2021/07/13 03:47:04;;;;;;;21.88;15.43;;;21.10;77.00;;;;;;5083571;28;20184;-90
2021/07/13 03:49:31;;;;;;;21.93;16.27;;;21.10;76.90;;;;;;5081312;28;20190;-90
2021/07/13 03:51:57;;;;;;;28.52;20.58;;;21.00;76.90;;;;;;5093519;28;20274;-90
2021/07/13 03:54:23;;;;;;;28.73;20.35;;;20.90;77.30;;;;;;5097364;28;20579;-90
2021/07/13 03:56:50;;;;;;;31.97;20.97;;;20.90;77.70;;;;;;5097547;28;20187;-90
2021/07/13 03:59:17;;;;;;;34.15;22.00;;;21.00;78.00;;;;;;5098266;28;20663;-90
2021/07/13 04:01:43;;;;;;;32.63;22.40;;;21.00;77.90;;;;;;5096365;28;20291;-90
2021/07/13 04:04:09;;;;;;;41.38;23.90;;;21.00;78.00;;;;;;5093537;28;20317;-90
2021/07/13 04:06:35;;;;;;;33.33;21.83;;;21.10;78.00;;;;;;5093451;28;20642;-90
2021/07/13 04:09:03;;;;;;;41.72;26.58;;;21.10;78.10;;;;;;5094549;28;20418;-90
2021/07/13 04:11:29;;;;;;;44.60;28.70;;;21.10;78.10;;;;;;5094800;28;20206;-90
2021/07/13 04:13:55;;;;;;;58.70;32.70;;;21.10;78.20;;;;;;5094120;28;20476;-90
2021/07/13 04:16:21;;;;;;;64.80;37.60;;;21.10;78.40;;;;;;5107542;28;20175;-90
2021/07/13 04:18:46;;;;;;;72.90;44.60;;;21.20;78.50;;;;;;5093897;28;20195;-90
2021/07/13 04:21:12;;;;;;;93.93;49.97;;;21.20;78.90;;;;;;5092745;28;20187;-90
2021/07/13 04:23:38;;;;;;;83.20;46.13;;;20.90;79.70;;;;;;5093067;28;20206;-90
2021/07/13 04:26:05;;;;;;;74.80;44.80;;;20.90;80.80;;;;;;5092691;28;20176;-90
2021/07/13 04:28:31;;;;;;;75.68;45.75;;;20.90;81.20;;;;;;5093055;28;20275;-90
2021/07/13 04:30:58;;;;;;;83.07;46.38;;;20.90;81.50;;;;;;5092575;28;20214;-90
2021/07/13 04:33:24;;;;;;;91.78;45.85;;;20.80;81.60;;;;;;5092897;28;20201;-90
2021/07/13 04:35:50;;;;;;;87.00;44.97;;;20.70;81.90;;;;;;5093422;28;20266;-90
2021/07/13 04:38:15;;;;;;;87.70;46.20;;;20.70;81.90;;;;;;5093459;28;20217;-90
2021/07/13 04:40:41;;;;;;;80.50;45.60;;;20.60;82.20;;;;;;5092714;28;20168;-90
2021/07/13 04:43:07;;;;;;;92.50;47.60;;;20.60;82.60;;;;;;5093128;28;20179;-90
2021/07/13 04:45:33;;;;;;;88.27;48.37;;;20.50;83.10;;;;;;5097381;28;20168;-90
2021/07/13 04:47:58;;;;;;;96.83;49.17;;;20.60;83.50;;;;;;5096897;28;20432;-90
2021/07/13 04:50:24;;;;;;;88.77;47.03;;;20.50;83.70;;;;;;5100521;28;20250;-90
2021/07/13 04:52:50;;;;;;;81.20;46.60;;;20.60;83.70;;;;;;5108433;28;20206;-90
2021/07/13 04:55:17;;;;;;;99.73;47.97;;;20.70;83.60;;;;;;5097628;28;20183;-90
2021/07/13 04:57:46;;;;;;;82.50;45.85;;;20.70;83.50;;;;;;5097549;28;20298;-90
2021/07/13 05:00:13;;;;;;;81.82;44.13;;;20.80;83.30;;;;;;5098657;28;20175;-90
2021/07/13 05:02:39;;;;;;;84.00;45.38;;;20.80;83.10;;;;;;5096798;28;20226;-90
2021/07/13 05:05:06;;;;;;;89.88;48.85;;;20.90;83.00;;;;;;5098189;28;20187;-90
2021/07/13 05:07:32;;;;;;;86.37;46.17;;;20.90;82.70;;;;;;5103428;28;20160;-91
2021/07/13 05:09:58;;;;;;;80.37;45.17;;;20.90;82.60;;;;;;5101164;28;20414;-91
2021/07/13 05:12:24;;;;;;;84.53;45.77;;;20.90;82.60;;;;;;5110242;28;20283;-91
2021/07/13 05:14:50;;;;;;;85.63;43.87;;;20.90;83.10;;;;;;5097826;28;20249;-91
2021/07/13 05:17:15;;;;;;;88.97;43.80;;;21.00;82.10;;;;;;5097443;28;20413;-91
2021/07/13 05:19:44;;;;;;;87.23;45.03;;;21.00;82.20;;;;;;5096724;28;20465;-91
2021/07/13 05:22:10;;;;;;;80.47;45.22;;;21.10;82.00;;;;;;5096482;28;20196;-92
2021/07/13 05:24:36;;;;;;;99.13;50.38;;;21.20;81.30;;;;;;5097049;28;20199;-91
2021/07/13 05:27:02;;;;;;;86.57;45.30;;;21.20;81.10;;;;;;5100715;28;20541;-91
2021/07/13 05:29:28;;;;;;;88.80;45.67;;;21.20;81.20;;;;;;5101986;28;20426;-91
2021/07/13 05:31:54;;;;;;;57.20;34.20;;;21.40;81.10;;;;;;5095419;28;20432;-91
2021/07/13 05:34:20;;;;;;;48.07;30.67;;;21.60;79.50;;;;;;5096701;28;20188;-91
2021/07/13 05:36:45;;;;;;;51.13;28.17;;;21.60;78.30;;;;;;5096816;28;20248;-91
2021/07/13 05:39:11;;;;;;;51.03;30.30;;;21.50;78.10;;;;;;5094282;28;20293;-90
2021/07/13 05:41:37;;;;;;;49.50;30.17;;;21.40;78.30;;;;;;5097350;28;20678;-90
2021/07/13 05:44:06;;;;;;;61.77;31.57;;;21.40;78.70;;;;;;5096220;28;20938;-90
2021/07/13 05:46:32;;;;;;;60.40;33.77;;;21.40;78.80;;;;;;5101240;28;20418;-92
2021/07/13 05:48:58;;;;;;;69.70;38.20;;;21.30;79.50;;;;;;5096816;28;20409;-91
2021/07/13 05:51:24;;;;;;;65.33;37.47;;;21.30;79.80;;;;;;5095989;28;20491;-91
2021/07/13 05:53:49;;;;;;;63.60;37.87;;;21.40;80.00;;;;;;5096579;28;20236;-91
2021/07/13 05:56:15;;;;;;;66.93;40.00;;;21.60;79.30;;;;;;5096532;28;20243;-91
2021/07/13 05:58:40;;;;;;;81.57;43.27;;;21.80;78.20;;;;;;5096063;28;20565;-91
2021/07/13 06:01:06;;;;;;;88.47;45.37;;;21.80;77.70;;;;;;5095297;28;20200;-91
2021/07/13 06:03:33;;;;;;;106.70;52.47;;;21.70;78.30;;;;;;5097023;28;20638;-91
2021/07/13 06:05:59;;;;;;;101.03;50.17;;;21.40;79.10;;;;;;5099417;28;20176;-90
2021/07/13 06:08:24;;;;;;;101.93;50.10;;;21.40;79.50;;;;;;5109072;28;20490;-92
2021/07/13 06:10:50;;;;;;;113.27;49.90;;;21.40;79.30;;;;;;5099436;28;20959;-92
2021/07/13 06:13:16;;;;;;;115.93;51.47;;;21.30;79.30;;;;;;5100657;28;20570;-91
2021/07/13 06:15:42;;;;;;;97.43;50.40;;;20.90;79.80;;;;;;5100632;28;20551;-91
2021/07/13 06:18:08;;;;;;;108.37;51.27;;;21.00;80.40;;;;;;5099151;28;20211;-91
2021/07/13 06:20:35;;;;;;;97.93;50.83;;;20.90;80.60;;;;;;5099295;28;20562;-91
2021/07/13 06:23:01;;;;;;;99.47;47.70;;;21.20;80.80;;;;;;5100105;28;20203;-92
2021/07/13 06:25:27;;;;;;;101.75;49.15;;;21.10;80.80;;;;;;5100036;28;20414;-93
2021/07/13 06:27:52;;;;;;;105.67;52.50;;;21.20;80.70;;;;;;5099870;28;20670;-92
2021/07/13 06:30:18;;;;;;;102.57;51.60;;;21.40;80.20;;;;;;5100096;28;20421;-91
2021/07/13 06:32:45;;;;;;;108.17;48.60;;;21.50;79.50;;;;;;5099880;28;20196;-91
2021/07/13 06:35:11;;;;;;;99.27;49.50;;;21.50;79.30;;;;;;5098005;28;20747;-91
2021/07/13 06:37:37;;;;;;;107.67;48.43;;;21.50;79.00;;;;;;5095437;28;20426;-90
2021/07/13 06:40:05;;;;;;;99.00;51.97;;;21.50;78.80;;;;;;5095955;28;20471;-91
2021/07/13 06:42:30;;;;;;;100.23;51.20;;;21.50;78.80;;;;;;5097924;28;20231;-90
2021/07/13 06:44:56;;;;;;;128.00;52.87;;;21.50;78.80;;;;;;5095138;28;20782;-91
2021/07/13 06:47:22;;;;;;;114.47;52.97;;;21.70;78.70;;;;;;5095884;28;20658;-91
2021/07/13 06:49:47;;;;;;;112.90;52.80;;;21.60;78.90;;;;;;5095763;28;20203;-91
2021/07/13 06:52:13;;;;;;;114.97;55.80;;;21.50;79.40;;;;;;5097338;28;20195;-91
2021/07/13 06:54:39;;;;;;;111.33;52.20;;;21.60;79.10;;;;;;5096224;28;20180;-91
2021/07/13 06:57:05;;;;;;;112.40;52.07;;;21.70;79.00;;;;;;5095713;28;20179;-90
2021/07/13 06:59:30;;;;;;;118.00;55.57;;;21.90;78.10;;;;;;5098491;28;20654;-91
2021/07/13 07:01:56;;;;;;;111.33;50.00;;;21.80;77.90;;;;;;5109059;28;20453;-90
2021/07/13 07:04:22;;;;;;;120.07;55.90;;;21.70;78.30;;;;;;5103614;28;20245;-91
2021/07/13 07:06:48;;;;;;;111.90;54.27;;;21.60;78.60;;;;;;5096180;28;20221;-92
2021/07/13 07:09:14;;;;;;;102.37;52.47;;;21.60;78.70;;;;;;5096662;28;20440;-91
2021/07/13 07:11:39;;;;;;;116.60;52.00;;;21.60;78.70;;;;;;5098980;28;20460;-90
2021/07/13 07:14:05;;;;;;;105.40;50.13;;;21.90;78.20;;;;;;5115693;28;20176;-91
2021/07/13 07:16:32;;;;;;;96.70;47.97;;;22.30;76.50;;;;;;5116626;28;20405;-91
2021/07/13 07:18:57;;;;;;;100.07;49.67;;;22.50;75.60;;;;;;5116640;28;20236;-90
2021/07/13 07:21:23;;;;;;;92.00;47.23;;;22.30;75.20;;;;;;5116853;28;20445;-91
2021/07/13 07:23:49;;;;;;;92.00;47.30;;;22.30;75.20;;;;;;5115966;28;20183;-92
2021/07/13 07:26:15;;;;;;;91.33;43.53;;;22.30;74.80;;;;;;5116255;28;20167;-91
2021/07/13 07:28:40;;;;;;;101.07;46.70;;;22.10;75.10;;;;;;5115674;28;20172;-89
2021/07/13 07:31:06;;;;;;;88.20;44.90;;;22.10;75.00;;;;;;5114963;28;20207;-91
2021/07/13 07:33:32;;;;;;;83.83;42.17;;;22.20;75.20;;;;;;5113626;28;20179;-91
2021/07/13 07:35:58;;;;;;;79.33;40.93;;;22.20;74.50;;;;;;5113146;28;20180;-92
2021/07/13 07:38:24;;;;;;;81.73;43.30;;;22.40;74.10;;;;;;5111702;28;20219;-91
2021/07/13 07:40:49;;;;;;;74.17;39.60;;;22.80;73.30;;;;;;5098079;28;20433;-91
2021/07/13 07:43:16;;;;;;;80.90;42.20;;;22.70;72.60;;;;;;5094793;28;20497;-91
2021/07/13 07:45:41;;;;;;;77.00;43.07;;;22.80;72.60;;;;;;5098190;28;20172;-91
2021/07/13 07:48:07;;;;;;;85.47;42.13;;;22.80;71.70;;;;;;5095940;28;20422;-91
2021/07/13 07:50:33;;;;;;;83.37;42.00;;;23.10;71.60;;;;;;5096959;28;20183;-92
2021/07/13 07:52:59;;;;;;;74.03;39.77;;;23.10;70.70;;;;;;5104289;28;20717;-91
2021/07/13 07:55:26;;;;;;;66.07;36.70;;;23.30;70.30;;;;;;5096626;28;20211;-90
2021/07/13 07:57:53;;;;;;;70.07;37.50;;;23.40;69.70;;;;;;5107348;28;20271;-89
2021/07/13 08:00:20;;;;;;;69.27;35.97;;;23.30;69.30;;;;;;5097001;28;20426;-91
2021/07/13 08:02:46;;;;;;;59.37;36.00;;;23.50;69.00;;;;;;5094686;28;20433;-91
2021/07/13 08:05:14;;;;;;;66.50;37.17;;;23.60;68.30;;;;;;5100825;28;20417;-90
2021/07/13 08:07:41;;;;;;;57.47;34.67;;;23.60;68.80;;;;;;5096128;28;20446;-91
2021/07/13 08:10:08;;;;;;;64.43;36.93;;;23.60;69.30;;;;;;5095047;28;20445;-91
2021/07/13 08:12:35;;;;;;;63.03;37.17;;;23.70;68.20;;;;;;5095062;28;20464;-91
2021/07/13 08:15:01;;;;;;;65.10;37.40;;;23.70;68.10;;;;;;5097645;28;20437;-91
2021/07/13 08:17:26;;;;;;;59.50;34.40;;;23.30;68.90;;;;;;5094630;28;20417;-91
2021/07/13 08:19:52;;;;;;;62.60;38.50;;;23.30;69.60;;;;;;5098016;28;20182;-91
2021/07/13 08:22:18;;;;;;;66.03;38.70;;;23.20;69.90;;;;;;5098292;28;20210;-91
2021/07/13 08:24:44;;;;;;;58.47;39.30;;;23.10;70.70;;;;;;5099791;28;20195;-91
2021/07/13 08:27:11;;;;;;;60.70;38.53;;;23.00;71.40;;;;;;5101292;28;20451;-91
2021/07/13 08:29:37;;;;;;;60.63;38.53;;;23.10;71.70;;;;;;5101532;28;20543;-92
2021/07/13 08:32:27;;;;;;;69.43;39.07;;;23.00;72.20;;;;;;5098843;28;20869;-92
2021/07/13 08:34:53;;;;;;;61.53;38.87;;;22.90;72.80;;;;;;5102863;28;20544;-92
2021/07/13 08:37:21;;;;;;;61.83;39.90;;;23.00;72.60;;;;;;5104852;28;20939;-92
2021/07/13 08:39:47;;;;;;;65.97;39.77;;;23.00;72.50;;;;;;5103661;28;20461;-92
2021/07/13 08:42:14;;;;;;;70.27;41.07;;;23.10;72.50;;;;;;5104866;28;20476;-92
2021/07/13 08:44:41;;;;;;;62.20;42.23;;;22.90;72.70;;;;;;5107037;28;20414;-92
2021/07/13 08:47:06;;;;;;;65.23;39.50;;;22.80;73.50;;;;;;5105571;28;20509;-92
2021/07/13 08:49:32;;;;;;;62.80;42.23;;;22.70;74.10;;;;;;5104683;28;20446;-92
2021/07/13 08:51:58;;;;;;;64.53;41.20;;;22.70;74.50;;;;;;5104401;28;20444;-92
2021/07/13 08:54:24;;;;;;;62.30;40.77;;;22.60;75.10;;;;;;5119078;28;20188;-91
2021/07/13 08:56:49;;;;;;;61.17;39.23;;;22.70;75.30;;;;;;5108657;28;20184;-92
2021/07/13 08:59:15;;;;;;;63.27;39.07;;;22.60;75.00;;;;;;5104932;28;20208;-92
2021/07/13 09:01:42;;;;;;;59.60;37.53;;;22.50;75.10;;;;;;5101645;28;20203;-92
2021/07/13 09:04:09;;;;;;;63.03;40.07;;;22.60;75.00;;;;;;5101453;28;20176;-92
2021/07/13 09:06:55;;;;;;;61.90;40.57;;;22.50;75.00;;;;;;5099124;28;20413;-92
2021/07/13 09:09:24;;;;;;;63.03;42.03;;;22.40;75.10;;;;;;5094504;28;20496;-92
2021/07/13 09:12:08;;;;;;;58.40;38.20;;;22.30;75.20;;;;;;5079160;28;20456;-92
2021/07/13 09:14:51;;;;;;;55.30;39.20;;;22.30;76.00;;;;;;5078129;28;20499;-92
2021/07/13 09:17:40;;;;;;;61.20;38.77;;;22.30;76.30;;;;;;5082351;28;20518;-91
2021/07/13 09:20:22;;;;;;;58.00;37.07;;;22.50;76.10;;;;;;5080737;28;20498;-92
2021/07/13 09:22:58;;;;;;;61.67;35.43;;;22.60;75.40;;;;;;5078447;28;20435;-92
2021/07/13 09:25:31;;;;;;;59.20;34.70;;;22.70;75.30;;;;;;5079807;28;20418;-92
2021/07/13 09:28:14;;;;;;;59.60;37.73;;;23.00;74.90;;;;;;5079683;28;20418;-91
2021/07/13 09:30:46;;;;;;;56.53;36.47;;;22.90;74.20;;;;;;5078767;28;20415;-91
2021/07/13 09:33:23;;;;;;;56.17;38.50;;;23.10;74.20;;;;;;5081325;28;20407;-92
2021/07/13 09:36:01;;;;;;;56.67;36.13;;;23.00;73.60;;;;;;5083542;28;20486;-92
2021/07/13 09:38:30;;;;;;;55.00;37.37;;;23.10;74.00;;;;;;5080222;28;20466;-92
2021/07/13 09:41:14;;;;;;;51.90;37.13;;;23.20;73.60;;;;;;5095394;28;20426;-91
2021/07/13 09:43:59;;;;;;;56.87;37.90;;;23.20;73.70;;;;;;5119617;28;20429;-91
2021/07/13 09:46:40;;;;;;;55.43;38.47;;;23.30;73.10;;;;;;5119590;28;20430;-90
2021/07/13 09:49:15;;;;;;;51.17;35.60;;;23.40;72.70;;;;;;5119878;28;20422;-88
2021/07/13 09:51:46;;;;;;;54.30;36.23;;;23.90;72.00;;;;;;5116764;28;20463;-91
2021/07/13 09:54:36;;;;;;;50.87;36.70;;;24.10;71.50;;;;;;5117464;28;20434;-90
2021/07/13 09:57:07;;;;;;;57.27;36.10;;;24.10;70.30;;;;;;5118149;28;20435;-90
2021/07/13 09:59:33;;;;;;;49.63;33.97;;;24.10;70.20;;;;;;5099819;28;20453;-91
2021/07/13 10:02:05;;;;;;;46.50;33.20;;;24.10;69.60;;;;;;5097099;28;20503;-91
2021/07/13 10:04:31;;;;;;;51.17;34.30;;;24.20;69.10;;;;;;5097173;28;20426;-91
2021/07/13 10:07:02;;;;;;;49.33;36.00;;;24.00;68.90;;;;;;5098678;28;20568;-91
2021/07/13 10:09:33;;;;;;;49.80;34.03;;;24.10;69.70;;;;;;5097613;28;21030;-91
2021/07/13 10:11:59;;;;;;;48.87;33.50;;;24.10;70.00;;;;;;5096780;28;20535;-91
2021/07/13 10:14:25;;;;;;;42.47;30.53;;;24.00;69.50;;;;;;5097195;28;20426;-91
2021/07/13 10:16:51;;;;;;;53.67;31.47;;;24.20;69.50;;;;;;5098125;28;20418;-91
2021/07/13 10:19:17;;;;;;;41.47;29.70;;;24.40;69.10;;;;;;5096964;28;20457;-92
2021/07/13 10:21:46;;;;;;;43.67;29.50;;;24.60;67.80;;;;;;5096107;28;20781;-91
2021/07/13 10:24:13;;;;;;;40.30;29.77;;;24.90;67.70;;;;;;5097235;28;20176;-92
2021/07/13 10:26:50;;;;;;;38.60;29.23;;;25.10;66.70;;;;;;5097905;28;20749;-92
2021/07/13 10:29:34;;;;;;;38.10;27.33;;;24.80;66.60;;;;;;5098983;28;20413;-92
2021/07/13 10:32:06;;;;;;;41.20;28.40;;;24.40;66.70;;;;;;5097177;28;20441;-92
2021/07/13 10:34:53;;;;;;;39.33;29.27;;;24.20;68.10;;;;;;5097920;28;20763;-91
2021/07/13 10:37:32;;;;;;;47.33;33.13;;;24.10;69.20;;;;;;5096752;28;20417;-92
2021/07/13 10:40:06;;;;;;;48.63;31.63;;;23.70;70.00;;;;;;5097531;28;20410;-92
2021/07/13 10:42:46;;;;;;;48.63;32.20;;;23.50;70.80;;;;;;5099685;28;20510;-91
2021/07/13 10:45:23;;;;;;;46.13;32.07;;;23.40;71.00;;;;;;5106549;28;20414;-91
2021/07/13 10:48:00;;;;;;;50.83;32.57;;;23.40;71.20;;;;;;5096631;28;20996;-92
2021/07/13 10:50:29;;;;;;;47.43;31.77;;;23.30;71.80;;;;;;5096890;28;20400;-91
2021/07/13 10:52:59;;;;;;;42.60;30.17;;;23.40;71.40;;;;;;5096352;28;20444;-92
2021/07/13 10:55:31;;;;;;;47.13;34.37;;;23.70;71.20;;;;;;5096635;28;20413;-91
2021/07/13 10:58:13;;;;;;;43.60;30.70;;;23.90;70.30;;;;;;5096355;28;20995;-92
2021/07/13 11:00:51;;;;;;;49.83;33.30;;;23.90;70.50;;;;;;5096112;28;20564;-91
2021/07/13 11:03:32;;;;;;;56.40;32.43;;;23.70;70.40;;;;;;5098873;28;20947;-91
2021/07/13 11:06:02;;;;;;;44.00;31.60;;;23.80;70.70;;;;;;5098703;28;20416;-92
2021/07/13 11:08:40;;;;;;;42.50;32.20;;;23.80;70.40;;;;;;5097856;28;20418;-92
2021/07/13 11:11:18;;;;;;;49.50;34.43;;;23.90;70.60;;;;;;5079242;28;20905;-90
2021/07/13 11:13:49;;;;;;;48.80;34.87;;;23.80;71.10;;;;;;5082137;28;20551;-91
2021/07/13 11:16:21;;;;;;;50.63;35.40;;;23.50;72.00;;;;;;5081644;28;20442;-91
2021/07/13 11:18:46;;;;;;;49.80;35.00;;;23.50;72.20;;;;;;5091069;28;20446;-90
2021/07/13 11:21:18;;;;;;;52.87;33.30;;;23.60;71.70;;;;;;5089158;28;20466;-90
2021/07/13 11:23:48;;;;;;;50.07;34.90;;;23.60;72.00;;;;;;5103275;28;20411;-90
2021/07/13 11:26:15;;;;;;;53.10;34.50;;;23.50;71.80;;;;;;5103097;28;20411;-90
2021/07/13 11:28:45;;;;;;;56.13;36.60;;;23.30;72.80;;;;;;5098215;28;20566;-90
2021/07/13 11:31:17;;;;;;;50.07;35.23;;;23.20;75.20;;;;;;5097209;28;20446;-90
2021/07/13 11:34:10;;;;;;;62.23;38.23;;;22.90;76.30;;;;;;5095774;28;20414;-91
2021/07/13 11:36:42;;;;;;;54.10;37.77;;;22.70;76.30;;;;;;5093685;28;20462;-91
2021/07/13 11:39:30;;;;;;;53.37;35.73;;;22.70;76.30;;;;;;5094036;28;20465;-90
2021/07/13 11:42:02;;;;;;;55.97;35.40;;;22.50;75.80;;;;;;5081660;28;20438;-91
2021/07/13 11:44:29;;;;;;;52.33;32.90;;;22.60;76.10;;;;;;5094790;28;20415;-91
2021/07/13 11:46:56;;;;;;;56.97;35.70;;;22.60;76.00;;;;;;5094794;28;20450;-90
2021/07/13 11:49:25;;;;;;;58.00;38.07;;;22.50;76.30;;;;;;5093672;28;20418;-91
2021/07/13 11:52:01;;;;;;;61.27;40.37;;;22.50;77.70;;;;;;5093989;28;20450;-91
2021/07/13 11:54:32;;;;;;;61.87;39.27;;;22.20;79.10;;;;;;5078205;28;20551;-92
2021/07/13 11:56:59;;;;;;;65.37;43.20;;;22.00;81.40;;;;;;5097118;28;20421;-92
2021/07/13 11:59:30;;;;;;;71.07;44.10;;;21.70;83.60;;;;;;5096591;28;20988;-91
2021/07/13 12:01:58;;;;;;;82.47;46.10;;;21.70;84.90;;;;;;5095292;28;20558;-91
2021/07/13 12:04:25;;;;;;;76.78;47.30;;;21.40;85.90;;;;;;5098219;28;20414;-92
2021/07/13 12:06:54;;;;;;;89.90;47.60;;;21.20;87.30;;;;;;5094489;28;20517;-92
2021/07/13 12:09:27;;;;;;;96.57;53.00;;;21.10;88.60;;;;;;5094902;28;20428;-92
2021/07/13 12:11:55;;;;;;;92.97;53.75;;;21.00;89.50;;;;;;5093832;28;20433;-91
2021/07/13 12:14:24;;;;;;;90.78;48.28;;;20.90;90.30;;;;;;5094120;28;20180;-91
2021/07/13 12:16:53;;;;;;;92.57;50.67;;;20.70;90.80;;;;;;5094207;28;20175;-91
2021/07/13 12:19:20;;;;;;;105.88;54.08;;;20.80;91.80;;;;;;5094687;28;20534;-91
2021/07/13 12:21:55;;;;;;;105.13;52.97;;;20.90;92.60;;;;;;5095628;28;20193;-91
2021/07/13 12:24:24;;;;;;;103.83;54.80;;;21.00;93.20;;;;;;5096195;28;20545;-90
2021/07/13 12:26:55;;;;;;;107.60;54.60;;;21.20;93.60;;;;;;5097728;28;20478;-90
2021/07/13 12:29:43;;;;;;;98.87;54.73;;;21.20;93.60;;;;;;5095851;28;20413;-91
2021/07/13 12:32:20;;;;;;;101.60;54.93;;;21.40;93.70;;;;;;5098262;28;20449;-90
2021/07/13 12:34:47;;;;;;;108.83;53.63;;;21.30;93.00;;;;;;5096068;28;20394;-91
2021/07/13 12:37:19;;;;;;;103.30;54.60;;;21.30;92.70;;;;;;5106662;28;20410;-91